sensor_id;sensor_type;location;lat;lon;timestamp;P1;durP1;ratioP1;P2;durP2;ratioP2
9541;SDS011;4809;48.224;8.572;2022-12-10T00:01:51;32.37;;;19.40;;
9541;SDS011;4809;48.224;8.572;2022-12-10T00:04:18;54.83;;;27.97;;
9541;SDS011;4809;48.224;8.572;2022-12-10T00:06:44;35.00;;;20.13;;
9541;SDS011;4809;48.224;8.572;2022-12-10T00:09:12;30.23;;;18.37;;
9541;SDS011;4809;48.224;8.572;2022-12-10T00:11:39;31.63;;;18.60;;
9541;SDS011;4809;48.224;8.572;2022-12-10T00:14:06;29.43;;;17.97;;
9541;SDS011;4809;48.224;8.572;2022-12-10T00:16:32;32.80;;;19.57;;
9541;SDS011;4809;48.224;8.572;2022-12-10T00:18:58;34.63;;;19.80;;
9541;SDS011;4809;48.224;8.572;2022-12-10T00:21:29;34.80;;;20.13;;
9541;SDS011;4809;48.224;8.572;2022-12-10T00:23:56;33.67;;;20.00;;
9541;SDS011;4809;48.224;8.572;2022-12-10T00:26:23;36.03;;;20.87;;
9541;SDS011;4809;48.224;8.572;2022-12-10T00:28:50;35.90;;;20.93;;
9541;SDS011;4809;48.224;8.572;2022-12-10T00:31:21;32.17;;;19.43;;
9541;SDS011;4809;48.224;8.572;2022-12-10T00:33:49;34.77;;;20.23;;
9541;SDS011;4809;48.224;8.572;2022-12-10T00:36:20;32.07;;;19.50;;
9541;SDS011;4809;48.224;8.572;2022-12-10T00:38:51;34.30;;;20.13;;
9541;SDS011;4809;48.224;8.572;2022-12-10T00:41:17;33.63;;;20.10;;
9541;SDS011;4809;48.224;8.572;2022-12-10T00:43:43;32.93;;;20.40;;
9541;SDS011;4809;48.224;8.572;2022-12-10T00:46:10;33.80;;;20.67;;
9541;SDS011;4809;48.224;8.572;2022-12-10T00:48:37;33.70;;;19.93;;
9541;SDS011;4809;48.224;8.572;2022-12-10T00:51:04;30.30;;;19.33;;
9541;SDS011;4809;48.224;8.572;2022-12-10T00:53:32;29.80;;;18.93;;
9541;SDS011;4809;48.224;8.572;2022-12-10T00:55:59;32.60;;;18.90;;
9541;SDS011;4809;48.224;8.572;2022-12-10T00:58:28;28.80;;;17.50;;
9541;SDS011;4809;48.224;8.572;2022-12-10T01:01:13;29.87;;;18.27;;
9541;SDS011;4809;48.224;8.572;2022-12-10T01:03:47;27.97;;;17.37;;
9541;SDS011;4809;48.224;8.572;2022-12-10T01:06:14;27.47;;;17.23;;
9541;SDS011;4809;48.224;8.572;2022-12-10T01:08:46;29.47;;;18.27;;
9541;SDS011;4809;48.224;8.572;2022-12-10T01:11:13;29.23;;;18.37;;
9541;SDS011;4809;48.224;8.572;2022-12-10T01:13:40;28.07;;;18.03;;
9541;SDS011;4809;48.224;8.572;2022-12-10T01:16:07;30.70;;;18.70;;
9541;SDS011;4809;48.224;8.572;2022-12-10T01:18:34;31.00;;;18.90;;
9541;SDS011;4809;48.224;8.572;2022-12-10T01:21:04;29.77;;;18.50;;
9541;SDS011;4809;48.224;8.572;2022-12-10T01:23:34;30.83;;;18.70;;
9541;SDS011;4809;48.224;8.572;2022-12-10T01:26:05;30.73;;;19.13;;
9541;SDS011;4809;48.224;8.572;2022-12-10T01:28:34;30.90;;;19.40;;
9541;SDS011;4809;48.224;8.572;2022-12-10T01:31:01;30.20;;;18.20;;
9541;SDS011;4809;48.224;8.572;2022-12-10T01:33:29;29.00;;;18.83;;
9541;SDS011;4809;48.224;8.572;2022-12-10T01:35:55;32.70;;;18.73;;
9541;SDS011;4809;48.224;8.572;2022-12-10T01:38:21;30.07;;;19.00;;
9541;SDS011;4809;48.224;8.572;2022-12-10T01:40:47;31.17;;;19.77;;
9541;SDS011;4809;48.224;8.572;2022-12-10T01:43:16;32.17;;;19.67;;
9541;SDS011;4809;48.224;8.572;2022-12-10T01:45:41;33.90;;;19.27;;
9541;SDS011;4809;48.224;8.572;2022-12-10T01:48:07;30.90;;;19.70;;
9541;SDS011;4809;48.224;8.572;2022-12-10T01:50:33;30.13;;;18.43;;
9541;SDS011;4809;48.224;8.572;2022-12-10T01:52:59;32.23;;;19.07;;
9541;SDS011;4809;48.224;8.572;2022-12-10T01:58:03;39.43;;;21.47;;
9541;SDS011;4809;48.224;8.572;2022-12-10T02:00:29;32.17;;;20.17;;
9541;SDS011;4809;48.224;8.572;2022-12-10T02:03:01;30.20;;;18.90;;
9541;SDS011;4809;48.224;8.572;2022-12-10T02:05:39;34.27;;;19.87;;
9541;SDS011;4809;48.224;8.572;2022-12-10T02:08:19;32.20;;;19.20;;
9541;SDS011;4809;48.224;8.572;2022-12-10T02:11:17;33.77;;;19.70;;
9541;SDS011;4809;48.224;8.572;2022-12-10T02:14:15;36.60;;;19.63;;
9541;SDS011;4809;48.224;8.572;2022-12-10T02:17:09;34.27;;;20.20;;
9541;SDS011;4809;48.224;8.572;2022-12-10T02:22:24;34.57;;;20.50;;
9541;SDS011;4809;48.224;8.572;2022-12-10T02:24:53;34.63;;;20.00;;
9541;SDS011;4809;48.224;8.572;2022-12-10T02:29:52;34.60;;;19.73;;
9541;SDS011;4809;48.224;8.572;2022-12-10T02:32:24;31.10;;;19.23;;
9541;SDS011;4809;48.224;8.572;2022-12-10T02:34:55;32.57;;;19.37;;
9541;SDS011;4809;48.224;8.572;2022-12-10T02:37:25;35.17;;;18.87;;
9541;SDS011;4809;48.224;8.572;2022-12-10T02:39:55;29.97;;;18.30;;
9541;SDS011;4809;48.224;8.572;2022-12-10T02:42:24;34.40;;;19.50;;
9541;SDS011;4809;48.224;8.572;2022-12-10T02:44:51;42.27;;;19.63;;
9541;SDS011;4809;48.224;8.572;2022-12-10T02:47:18;29.87;;;18.80;;
9541;SDS011;4809;48.224;8.572;2022-12-10T02:49:49;34.90;;;19.07;;
9541;SDS011;4809;48.224;8.572;2022-12-10T02:52:19;31.23;;;18.03;;
9541;SDS011;4809;48.224;8.572;2022-12-10T02:54:46;32.93;;;18.40;;
9541;SDS011;4809;48.224;8.572;2022-12-10T03:05:12;32.33;;;18.10;;
9541;SDS011;4809;48.224;8.572;2022-12-10T03:07:58;34.23;;;18.17;;
9541;SDS011;4809;48.224;8.572;2022-12-10T03:10:34;31.83;;;17.90;;
9541;SDS011;4809;48.224;8.572;2022-12-10T03:13:06;33.90;;;17.83;;
9541;SDS011;4809;48.224;8.572;2022-12-10T03:15:35;35.53;;;18.70;;
9541;SDS011;4809;48.224;8.572;2022-12-10T03:18:05;45.50;;;19.20;;
9541;SDS011;4809;48.224;8.572;2022-12-10T03:20:33;34.17;;;17.70;;
9541;SDS011;4809;48.224;8.572;2022-12-10T03:23:01;33.80;;;19.10;;
9541;SDS011;4809;48.224;8.572;2022-12-10T03:25:29;37.90;;;19.00;;
9541;SDS011;4809;48.224;8.572;2022-12-10T03:27:56;35.30;;;18.77;;
9541;SDS011;4809;48.224;8.572;2022-12-10T03:30:24;34.23;;;18.70;;
9541;SDS011;4809;48.224;8.572;2022-12-10T03:32:50;46.30;;;19.10;;
9541;SDS011;4809;48.224;8.572;2022-12-10T03:35:16;40.17;;;18.27;;
9541;SDS011;4809;48.224;8.572;2022-12-10T03:37:44;43.23;;;18.77;;
9541;SDS011;4809;48.224;8.572;2022-12-10T03:40:10;33.40;;;17.63;;
9541;SDS011;4809;48.224;8.572;2022-12-10T03:42:37;35.40;;;18.83;;
9541;SDS011;4809;48.224;8.572;2022-12-10T03:45:04;57.47;;;19.47;;
9541;SDS011;4809;48.224;8.572;2022-12-10T03:47:31;31.10;;;17.50;;
9541;SDS011;4809;48.224;8.572;2022-12-10T03:49:57;32.20;;;18.63;;
9541;SDS011;4809;48.224;8.572;2022-12-10T03:52:23;35.60;;;18.77;;
9541;SDS011;4809;48.224;8.572;2022-12-10T03:54:48;42.17;;;17.80;;
9541;SDS011;4809;48.224;8.572;2022-12-10T03:57:14;32.43;;;17.77;;
9541;SDS011;4809;48.224;8.572;2022-12-10T03:59:40;32.53;;;17.90;;
9541;SDS011;4809;48.224;8.572;2022-12-10T04:02:05;31.23;;;17.30;;
9541;SDS011;4809;48.224;8.572;2022-12-10T04:04:31;47.80;;;18.87;;
9541;SDS011;4809;48.224;8.572;2022-12-10T04:06:56;41.87;;;17.90;;
9541;SDS011;4809;48.224;8.572;2022-12-10T04:09:22;30.97;;;16.87;;
9541;SDS011;4809;48.224;8.572;2022-12-10T04:11:48;32.40;;;17.03;;
9541;SDS011;4809;48.224;8.572;2022-12-10T04:14:13;44.63;;;19.00;;
9541;SDS011;4809;48.224;8.572;2022-12-10T04:16:58;33.83;;;17.50;;
9541;SDS011;4809;48.224;8.572;2022-12-10T04:19:24;35.47;;;17.97;;
9541;SDS011;4809;48.224;8.572;2022-12-10T04:21:50;31.53;;;17.03;;
9541;SDS011;4809;48.224;8.572;2022-12-10T04:24:35;49.50;;;18.50;;
9541;SDS011;4809;48.224;8.572;2022-12-10T04:27:27;35.20;;;16.73;;
9541;SDS011;4809;48.224;8.572;2022-12-10T04:29:55;29.30;;;17.10;;
9541;SDS011;4809;48.224;8.572;2022-12-10T04:32:22;37.67;;;17.33;;
9541;SDS011;4809;48.224;8.572;2022-12-10T04:34:49;38.47;;;17.10;;
9541;SDS011;4809;48.224;8.572;2022-12-10T04:37:15;40.63;;;18.00;;
9541;SDS011;4809;48.224;8.572;2022-12-10T04:39:41;28.10;;;17.00;;
9541;SDS011;4809;48.224;8.572;2022-12-10T04:42:07;41.93;;;18.57;;
9541;SDS011;4809;48.224;8.572;2022-12-10T04:44:33;44.73;;;17.57;;
9541;SDS011;4809;48.224;8.572;2022-12-10T04:46:59;33.20;;;18.20;;
9541;SDS011;4809;48.224;8.572;2022-12-10T04:49:25;42.50;;;17.80;;
9541;SDS011;4809;48.224;8.572;2022-12-10T04:51:51;30.00;;;17.97;;
9541;SDS011;4809;48.224;8.572;2022-12-10T04:54:18;40.13;;;17.63;;
9541;SDS011;4809;48.224;8.572;2022-12-10T04:56:44;29.93;;;17.17;;
9541;SDS011;4809;48.224;8.572;2022-12-10T04:59:09;39.40;;;18.30;;
9541;SDS011;4809;48.224;8.572;2022-12-10T05:01:35;39.87;;;18.63;;
9541;SDS011;4809;48.224;8.572;2022-12-10T05:04:02;46.03;;;18.30;;
9541;SDS011;4809;48.224;8.572;2022-12-10T05:06:29;32.80;;;18.60;;
9541;SDS011;4809;48.224;8.572;2022-12-10T05:08:55;48.43;;;17.73;;
9541;SDS011;4809;48.224;8.572;2022-12-10T05:11:22;29.00;;;16.90;;
9541;SDS011;4809;48.224;8.572;2022-12-10T05:13:50;52.83;;;18.80;;
9541;SDS011;4809;48.224;8.572;2022-12-10T05:16:18;33.60;;;18.70;;
9541;SDS011;4809;48.224;8.572;2022-12-10T05:18:45;32.00;;;18.17;;
9541;SDS011;4809;48.224;8.572;2022-12-10T05:21:12;51.37;;;20.30;;
9541;SDS011;4809;48.224;8.572;2022-12-10T05:23:41;39.60;;;17.87;;
9541;SDS011;4809;48.224;8.572;2022-12-10T05:26:09;31.43;;;17.30;;
9541;SDS011;4809;48.224;8.572;2022-12-10T05:28:41;37.00;;;18.80;;
9541;SDS011;4809;48.224;8.572;2022-12-10T05:31:12;35.83;;;19.27;;
9541;SDS011;4809;48.224;8.572;2022-12-10T05:33:39;58.07;;;20.00;;
9541;SDS011;4809;48.224;8.572;2022-12-10T05:36:04;42.57;;;19.03;;
9541;SDS011;4809;48.224;8.572;2022-12-10T05:38:31;40.70;;;18.27;;
9541;SDS011;4809;48.224;8.572;2022-12-10T05:41:34;48.13;;;19.73;;
9541;SDS011;4809;48.224;8.572;2022-12-10T05:43:53;50.27;;;20.47;;
9541;SDS011;4809;48.224;8.572;2022-12-10T05:46:21;33.13;;;18.60;;
9541;SDS011;4809;48.224;8.572;2022-12-10T05:48:49;34.20;;;18.70;;
9541;SDS011;4809;48.224;8.572;2022-12-10T05:51:16;34.97;;;19.20;;
9541;SDS011;4809;48.224;8.572;2022-12-10T05:53:44;36.10;;;19.10;;
9541;SDS011;4809;48.224;8.572;2022-12-10T05:56:14;37.17;;;19.70;;
9541;SDS011;4809;48.224;8.572;2022-12-10T05:58:43;35.33;;;19.57;;
9541;SDS011;4809;48.224;8.572;2022-12-10T06:01:11;44.70;;;20.87;;
9541;SDS011;4809;48.224;8.572;2022-12-10T06:03:41;49.83;;;20.33;;
9541;SDS011;4809;48.224;8.572;2022-12-10T06:06:07;43.33;;;20.00;;
9541;SDS011;4809;48.224;8.572;2022-12-10T06:08:33;34.50;;;19.73;;
9541;SDS011;4809;48.224;8.572;2022-12-10T06:11:03;43.30;;;20.13;;
9541;SDS011;4809;48.224;8.572;2022-12-10T06:13:30;35.33;;;19.87;;
9541;SDS011;4809;48.224;8.572;2022-12-10T06:15:55;40.17;;;20.23;;
9541;SDS011;4809;48.224;8.572;2022-12-10T06:18:21;37.30;;;19.70;;
9541;SDS011;4809;48.224;8.572;2022-12-10T06:20:47;36.60;;;19.60;;
9541;SDS011;4809;48.224;8.572;2022-12-10T06:23:12;46.90;;;20.40;;
9541;SDS011;4809;48.224;8.572;2022-12-10T06:25:38;54.70;;;20.33;;
9541;SDS011;4809;48.224;8.572;2022-12-10T06:28:05;53.20;;;21.27;;
9541;SDS011;4809;48.224;8.572;2022-12-10T06:30:31;45.33;;;19.40;;
9541;SDS011;4809;48.224;8.572;2022-12-10T06:32:57;58.00;;;20.93;;
9541;SDS011;4809;48.224;8.572;2022-12-10T06:35:23;42.03;;;20.10;;
9541;SDS011;4809;48.224;8.572;2022-12-10T06:37:49;40.40;;;20.07;;
9541;SDS011;4809;48.224;8.572;2022-12-10T06:40:15;43.20;;;19.80;;
9541;SDS011;4809;48.224;8.572;2022-12-10T06:42:41;50.47;;;21.17;;
9541;SDS011;4809;48.224;8.572;2022-12-10T06:45:07;32.47;;;18.73;;
9541;SDS011;4809;48.224;8.572;2022-12-10T06:47:33;46.37;;;19.73;;
9541;SDS011;4809;48.224;8.572;2022-12-10T06:49:59;35.30;;;20.43;;
9541;SDS011;4809;48.224;8.572;2022-12-10T06:52:24;36.70;;;19.87;;
9541;SDS011;4809;48.224;8.572;2022-12-10T06:54:50;43.57;;;20.00;;
9541;SDS011;4809;48.224;8.572;2022-12-10T06:57:16;37.77;;;19.93;;
9541;SDS011;4809;48.224;8.572;2022-12-10T06:59:42;35.73;;;19.90;;
9541;SDS011;4809;48.224;8.572;2022-12-10T07:02:08;35.27;;;19.73;;
9541;SDS011;4809;48.224;8.572;2022-12-10T07:04:35;47.50;;;19.83;;
9541;SDS011;4809;48.224;8.572;2022-12-10T07:07:00;36.73;;;19.80;;
9541;SDS011;4809;48.224;8.572;2022-12-10T07:09:26;37.83;;;19.47;;
9541;SDS011;4809;48.224;8.572;2022-12-10T07:11:52;38.40;;;19.47;;
9541;SDS011;4809;48.224;8.572;2022-12-10T07:14:18;39.00;;;19.30;;
9541;SDS011;4809;48.224;8.572;2022-12-10T07:16:44;35.03;;;20.07;;
9541;SDS011;4809;48.224;8.572;2022-12-10T07:19:11;40.30;;;20.40;;
9541;SDS011;4809;48.224;8.572;2022-12-10T07:21:37;37.40;;;20.00;;
9541;SDS011;4809;48.224;8.572;2022-12-10T07:24:15;36.70;;;19.43;;
9541;SDS011;4809;48.224;8.572;2022-12-10T07:26:43;34.87;;;18.90;;
9541;SDS011;4809;48.224;8.572;2022-12-10T07:29:14;30.67;;;18.53;;
9541;SDS011;4809;48.224;8.572;2022-12-10T07:31:43;37.30;;;19.43;;
9541;SDS011;4809;48.224;8.572;2022-12-10T07:34:09;35.80;;;18.77;;
9541;SDS011;4809;48.224;8.572;2022-12-10T07:36:35;35.60;;;19.63;;
9541;SDS011;4809;48.224;8.572;2022-12-10T07:39:01;33.13;;;19.07;;
9541;SDS011;4809;48.224;8.572;2022-12-10T07:41:29;32.70;;;18.67;;
9541;SDS011;4809;48.224;8.572;2022-12-10T07:43:55;38.23;;;21.27;;
9541;SDS011;4809;48.224;8.572;2022-12-10T07:46:22;33.80;;;20.23;;
9541;SDS011;4809;48.224;8.572;2022-12-10T07:48:50;31.13;;;18.00;;
9541;SDS011;4809;48.224;8.572;2022-12-10T07:51:16;34.23;;;20.10;;
9541;SDS011;4809;48.224;8.572;2022-12-10T07:53:43;27.77;;;16.30;;
9541;SDS011;4809;48.224;8.572;2022-12-10T07:56:10;29.73;;;17.33;;
9541;SDS011;4809;48.224;8.572;2022-12-10T07:58:36;28.83;;;17.17;;
9541;SDS011;4809;48.224;8.572;2022-12-10T08:01:06;26.80;;;16.40;;
9541;SDS011;4809;48.224;8.572;2022-12-10T08:03:36;27.10;;;16.17;;
9541;SDS011;4809;48.224;8.572;2022-12-10T08:06:03;26.83;;;16.03;;
9541;SDS011;4809;48.224;8.572;2022-12-10T08:08:57;27.43;;;18.30;;
9541;SDS011;4809;48.224;8.572;2022-12-10T08:11:24;28.60;;;17.57;;
9541;SDS011;4809;48.224;8.572;2022-12-10T08:13:51;29.30;;;19.37;;
9541;SDS011;4809;48.224;8.572;2022-12-10T08:16:18;29.80;;;18.80;;
9541;SDS011;4809;48.224;8.572;2022-12-10T08:18:45;32.27;;;19.83;;
9541;SDS011;4809;48.224;8.572;2022-12-10T08:21:13;31.70;;;20.40;;
9541;SDS011;4809;48.224;8.572;2022-12-10T08:23:46;31.03;;;18.27;;
9541;SDS011;4809;48.224;8.572;2022-12-10T08:26:14;32.20;;;18.47;;
9541;SDS011;4809;48.224;8.572;2022-12-10T08:28:44;29.13;;;17.90;;
9541;SDS011;4809;48.224;8.572;2022-12-10T08:31:11;30.60;;;18.40;;
9541;SDS011;4809;48.224;8.572;2022-12-10T08:33:39;32.20;;;19.10;;
9541;SDS011;4809;48.224;8.572;2022-12-10T08:36:06;30.43;;;18.47;;
9541;SDS011;4809;48.224;8.572;2022-12-10T08:38:34;34.57;;;21.30;;
9541;SDS011;4809;48.224;8.572;2022-12-10T08:41:05;53.20;;;31.27;;
9541;SDS011;4809;48.224;8.572;2022-12-10T08:43:31;49.67;;;30.27;;
9541;SDS011;4809;48.224;8.572;2022-12-10T08:45:57;43.37;;;25.20;;
9541;SDS011;4809;48.224;8.572;2022-12-10T08:48:23;56.17;;;30.37;;
9541;SDS011;4809;48.224;8.572;2022-12-10T08:50:49;75.50;;;37.93;;
9541;SDS011;4809;48.224;8.572;2022-12-10T08:53:14;96.20;;;45.30;;
9541;SDS011;4809;48.224;8.572;2022-12-10T08:55:40;106.10;;;51.17;;
9541;SDS011;4809;48.224;8.572;2022-12-10T08:58:06;63.37;;;34.87;;
9541;SDS011;4809;48.224;8.572;2022-12-10T09:00:32;54.20;;;34.70;;
9541;SDS011;4809;48.224;8.572;2022-12-10T09:02:58;40.47;;;26.10;;
9541;SDS011;4809;48.224;8.572;2022-12-10T09:05:24;38.50;;;23.17;;
9541;SDS011;4809;48.224;8.572;2022-12-10T09:07:49;33.93;;;20.50;;
9541;SDS011;4809;48.224;8.572;2022-12-10T09:10:15;33.03;;;20.80;;
9541;SDS011;4809;48.224;8.572;2022-12-10T09:12:41;30.03;;;19.53;;
9541;SDS011;4809;48.224;8.572;2022-12-10T09:15:08;32.67;;;19.80;;
9541;SDS011;4809;48.224;8.572;2022-12-10T09:17:35;31.90;;;19.70;;
9541;SDS011;4809;48.224;8.572;2022-12-10T09:20:02;33.60;;;20.03;;
9541;SDS011;4809;48.224;8.572;2022-12-10T09:22:29;33.60;;;19.70;;
9541;SDS011;4809;48.224;8.572;2022-12-10T09:24:55;32.20;;;20.37;;
9541;SDS011;4809;48.224;8.572;2022-12-10T09:27:20;34.33;;;21.20;;
9541;SDS011;4809;48.224;8.572;2022-12-10T09:29:46;29.67;;;20.40;;
9541;SDS011;4809;48.224;8.572;2022-12-10T09:32:12;32.23;;;19.90;;
9541;SDS011;4809;48.224;8.572;2022-12-10T09:34:37;32.70;;;20.20;;
9541;SDS011;4809;48.224;8.572;2022-12-10T09:37:03;32.07;;;19.80;;
9541;SDS011;4809;48.224;8.572;2022-12-10T09:39:28;29.40;;;18.87;;
9541;SDS011;4809;48.224;8.572;2022-12-10T09:42:11;28.83;;;18.67;;
9541;SDS011;4809;48.224;8.572;2022-12-10T09:48:20;32.13;;;19.60;;
9541;SDS011;4809;48.224;8.572;2022-12-10T09:53:14;26.90;;;18.13;;
9541;SDS011;4809;48.224;8.572;2022-12-10T09:55:43;27.33;;;17.90;;
9541;SDS011;4809;48.224;8.572;2022-12-10T09:58:14;27.37;;;17.60;;
9541;SDS011;4809;48.224;8.572;2022-12-10T10:00:44;25.53;;;17.13;;
9541;SDS011;4809;48.224;8.572;2022-12-10T10:03:13;25.83;;;16.57;;
9541;SDS011;4809;48.224;8.572;2022-12-10T10:05:41;25.50;;;16.50;;
9541;SDS011;4809;48.224;8.572;2022-12-10T10:10:55;26.00;;;16.63;;
9541;SDS011;4809;48.224;8.572;2022-12-10T10:15:49;26.27;;;17.33;;
9541;SDS011;4809;48.224;8.572;2022-12-10T10:21:07;29.43;;;19.13;;
9541;SDS011;4809;48.224;8.572;2022-12-10T10:23:41;28.50;;;19.00;;
9541;SDS011;4809;48.224;8.572;2022-12-10T10:26:10;26.27;;;17.90;;
9541;SDS011;4809;48.224;8.572;2022-12-10T10:28:36;27.47;;;17.87;;
9541;SDS011;4809;48.224;8.572;2022-12-10T10:31:07;27.37;;;18.00;;
9541;SDS011;4809;48.224;8.572;2022-12-10T10:33:50;27.83;;;18.00;;
9541;SDS011;4809;48.224;8.572;2022-12-10T10:36:22;27.37;;;16.87;;
9541;SDS011;4809;48.224;8.572;2022-12-10T10:38:49;25.33;;;16.93;;
9541;SDS011;4809;48.224;8.572;2022-12-10T10:41:15;25.77;;;17.80;;
9541;SDS011;4809;48.224;8.572;2022-12-10T10:43:41;24.47;;;17.00;;
9541;SDS011;4809;48.224;8.572;2022-12-10T10:48:42;36.70;;;22.87;;
9541;SDS011;4809;48.224;8.572;2022-12-10T10:53:47;22.77;;;16.00;;
9541;SDS011;4809;48.224;8.572;2022-12-10T10:56:20;23.93;;;17.53;;
9541;SDS011;4809;48.224;8.572;2022-12-10T11:04:16;25.97;;;17.17;;
9541;SDS011;4809;48.224;8.572;2022-12-10T11:06:43;33.70;;;21.20;;
9541;SDS011;4809;48.224;8.572;2022-12-10T11:09:18;35.50;;;22.10;;
9541;SDS011;4809;48.224;8.572;2022-12-10T11:11:50;37.43;;;22.67;;
9541;SDS011;4809;48.224;8.572;2022-12-10T11:16:50;28.03;;;18.10;;
9541;SDS011;4809;48.224;8.572;2022-12-10T11:19:57;32.83;;;20.60;;
9541;SDS011;4809;48.224;8.572;2022-12-10T11:22:28;26.77;;;17.17;;
9541;SDS011;4809;48.224;8.572;2022-12-10T11:24:58;26.47;;;17.17;;
9541;SDS011;4809;48.224;8.572;2022-12-10T11:30:14;25.20;;;16.87;;
9541;SDS011;4809;48.224;8.572;2022-12-10T11:32:53;26.93;;;17.80;;
9541;SDS011;4809;48.224;8.572;2022-12-10T11:43:45;30.20;;;19.47;;
9541;SDS011;4809;48.224;8.572;2022-12-10T11:49:38;29.03;;;18.27;;
9541;SDS011;4809;48.224;8.572;2022-12-10T11:55:02;28.90;;;18.93;;
9541;SDS011;4809;48.224;8.572;2022-12-10T11:58:08;27.50;;;18.57;;
9541;SDS011;4809;48.224;8.572;2022-12-10T12:00:55;27.27;;;18.40;;
9541;SDS011;4809;48.224;8.572;2022-12-10T12:17:59;25.10;;;16.20;;
9541;SDS011;4809;48.224;8.572;2022-12-10T12:20:34;32.00;;;20.13;;
9541;SDS011;4809;48.224;8.572;2022-12-10T12:23:10;25.10;;;16.70;;
9541;SDS011;4809;48.224;8.572;2022-12-10T12:25:46;25.03;;;17.97;;
9541;SDS011;4809;48.224;8.572;2022-12-10T12:28:18;25.23;;;17.03;;
9541;SDS011;4809;48.224;8.572;2022-12-10T12:30:47;22.23;;;15.13;;
9541;SDS011;4809;48.224;8.572;2022-12-10T12:33:33;21.50;;;13.73;;
9541;SDS011;4809;48.224;8.572;2022-12-10T12:36:09;17.87;;;12.70;;
9541;SDS011;4809;48.224;8.572;2022-12-10T12:41:40;22.83;;;19.13;;
9541;SDS011;4809;48.224;8.572;2022-12-10T12:44:15;21.77;;;16.57;;
9541;SDS011;4809;48.224;8.572;2022-12-10T12:46:49;25.03;;;16.70;;
9541;SDS011;4809;48.224;8.572;2022-12-10T12:49:23;24.90;;;17.43;;
9541;SDS011;4809;48.224;8.572;2022-12-10T12:52:05;22.93;;;16.63;;
9541;SDS011;4809;48.224;8.572;2022-12-10T12:54:59;24.67;;;16.50;;
9541;SDS011;4809;48.224;8.572;2022-12-10T13:00:18;28.93;;;19.50;;
9541;SDS011;4809;48.224;8.572;2022-12-10T13:02:55;25.13;;;16.80;;
9541;SDS011;4809;48.224;8.572;2022-12-10T13:05:44;19.90;;;12.80;;
9541;SDS011;4809;48.224;8.572;2022-12-10T13:13:39;23.60;;;15.73;;
9541;SDS011;4809;48.224;8.572;2022-12-10T13:24:18;28.50;;;16.73;;
9541;SDS011;4809;48.224;8.572;2022-12-10T13:46:31;15.40;;;10.63;;
9541;SDS011;4809;48.224;8.572;2022-12-10T13:49:00;15.83;;;11.00;;
9541;SDS011;4809;48.224;8.572;2022-12-10T14:00:08;17.67;;;12.53;;
9541;SDS011;4809;48.224;8.572;2022-12-10T14:08:02;16.17;;;11.33;;
9541;SDS011;4809;48.224;8.572;2022-12-10T14:10:31;18.03;;;12.07;;
9541;SDS011;4809;48.224;8.572;2022-12-10T14:13:03;15.83;;;11.47;;
9541;SDS011;4809;48.224;8.572;2022-12-10T14:15:30;17.63;;;12.23;;
9541;SDS011;4809;48.224;8.572;2022-12-10T14:18:04;18.73;;;12.93;;
9541;SDS011;4809;48.224;8.572;2022-12-10T14:20:36;15.37;;;11.03;;
9541;SDS011;4809;48.224;8.572;2022-12-10T14:23:20;17.10;;;11.67;;
9541;SDS011;4809;48.224;8.572;2022-12-10T14:28:54;16.93;;;11.70;;
9541;SDS011;4809;48.224;8.572;2022-12-10T14:31:28;16.50;;;11.30;;
9541;SDS011;4809;48.224;8.572;2022-12-10T14:34:02;16.73;;;11.07;;
9541;SDS011;4809;48.224;8.572;2022-12-10T14:36:36;14.03;;;10.50;;
9541;SDS011;4809;48.224;8.572;2022-12-10T14:39:10;15.43;;;10.53;;
9541;SDS011;4809;48.224;8.572;2022-12-10T14:41:39;14.20;;;10.73;;
9541;SDS011;4809;48.224;8.572;2022-12-10T14:44:05;14.60;;;10.63;;
9541;SDS011;4809;48.224;8.572;2022-12-10T14:46:31;13.03;;;9.57;;
9541;SDS011;4809;48.224;8.572;2022-12-10T14:48:57;13.00;;;8.93;;
9541;SDS011;4809;48.224;8.572;2022-12-10T14:51:25;12.73;;;9.00;;
9541;SDS011;4809;48.224;8.572;2022-12-10T14:53:56;13.73;;;9.63;;
9541;SDS011;4809;48.224;8.572;2022-12-10T14:59:20;11.73;;;8.10;;
9541;SDS011;4809;48.224;8.572;2022-12-10T15:01:56;14.03;;;9.57;;
9541;SDS011;4809;48.224;8.572;2022-12-10T15:04:38;12.40;;;8.80;;
9541;SDS011;4809;48.224;8.572;2022-12-10T15:07:05;14.23;;;10.10;;
9541;SDS011;4809;48.224;8.572;2022-12-10T15:09:37;15.00;;;10.03;;
9541;SDS011;4809;48.224;8.572;2022-12-10T15:12:03;13.57;;;9.50;;
9541;SDS011;4809;48.224;8.572;2022-12-10T15:14:29;11.87;;;9.43;;
9541;SDS011;4809;48.224;8.572;2022-12-10T15:16:55;11.43;;;8.00;;
9541;SDS011;4809;48.224;8.572;2022-12-10T15:24:46;19.40;;;10.83;;
9541;SDS011;4809;48.224;8.572;2022-12-10T15:27:19;23.47;;;13.33;;
9541;SDS011;4809;48.224;8.572;2022-12-10T15:29:47;20.37;;;13.03;;
9541;SDS011;4809;48.224;8.572;2022-12-10T15:34:48;34.10;;;19.03;;
9541;SDS011;4809;48.224;8.572;2022-12-10T15:37:35;42.77;;;22.63;;
9541;SDS011;4809;48.224;8.572;2022-12-10T15:40:05;45.20;;;23.67;;
9541;SDS011;4809;48.224;8.572;2022-12-10T15:42:47;63.13;;;29.33;;
9541;SDS011;4809;48.224;8.572;2022-12-10T15:45:37;46.87;;;25.13;;
9541;SDS011;4809;48.224;8.572;2022-12-10T15:48:09;38.87;;;22.47;;
9541;SDS011;4809;48.224;8.572;2022-12-10T15:50:37;36.57;;;22.80;;
9541;SDS011;4809;48.224;8.572;2022-12-10T15:53:04;27.47;;;18.47;;
9541;SDS011;4809;48.224;8.572;2022-12-10T15:55:29;22.30;;;16.37;;
9541;SDS011;4809;48.224;8.572;2022-12-10T15:57:55;17.90;;;12.23;;
9541;SDS011;4809;48.224;8.572;2022-12-10T16:00:22;18.10;;;12.63;;
9541;SDS011;4809;48.224;8.572;2022-12-10T16:05:30;30.33;;;18.23;;
9541;SDS011;4809;48.224;8.572;2022-12-10T16:08:01;27.60;;;16.67;;
9541;SDS011;4809;48.224;8.572;2022-12-10T16:10:35;24.93;;;15.23;;
9541;SDS011;4809;48.224;8.572;2022-12-10T16:13:02;39.10;;;19.83;;
9541;SDS011;4809;48.224;8.572;2022-12-10T16:15:30;46.67;;;23.20;;
9541;SDS011;4809;48.224;8.572;2022-12-10T16:18:04;44.47;;;23.77;;
9541;SDS011;4809;48.224;8.572;2022-12-10T16:20:30;30.90;;;16.47;;
9541;SDS011;4809;48.224;8.572;2022-12-10T16:22:57;22.97;;;13.77;;
9541;SDS011;4809;48.224;8.572;2022-12-10T16:25:25;18.23;;;11.23;;
9541;SDS011;4809;48.224;8.572;2022-12-10T16:27:53;16.57;;;11.07;;
9541;SDS011;4809;48.224;8.572;2022-12-10T16:30:23;14.57;;;10.10;;
9541;SDS011;4809;48.224;8.572;2022-12-10T16:32:53;16.93;;;11.17;;
9541;SDS011;4809;48.224;8.572;2022-12-10T16:35:20;14.03;;;10.20;;
9541;SDS011;4809;48.224;8.572;2022-12-10T16:37:46;16.10;;;10.63;;
9541;SDS011;4809;48.224;8.572;2022-12-10T16:40:15;15.67;;;10.57;;
9541;SDS011;4809;48.224;8.572;2022-12-10T16:42:41;16.63;;;11.23;;
9541;SDS011;4809;48.224;8.572;2022-12-10T16:47:44;21.23;;;13.50;;
9541;SDS011;4809;48.224;8.572;2022-12-10T16:50:10;16.83;;;11.90;;
9541;SDS011;4809;48.224;8.572;2022-12-10T16:52:37;16.63;;;11.77;;
9541;SDS011;4809;48.224;8.572;2022-12-10T16:55:03;14.73;;;9.90;;
9541;SDS011;4809;48.224;8.572;2022-12-10T16:57:30;16.87;;;10.47;;
9541;SDS011;4809;48.224;8.572;2022-12-10T16:59:55;13.63;;;9.30;;
9541;SDS011;4809;48.224;8.572;2022-12-10T17:02:21;12.97;;;8.60;;
9541;SDS011;4809;48.224;8.572;2022-12-10T17:04:47;12.60;;;8.57;;
9541;SDS011;4809;48.224;8.572;2022-12-10T17:07:13;14.83;;;10.27;;
9541;SDS011;4809;48.224;8.572;2022-12-10T17:09:40;11.20;;;8.23;;
9541;SDS011;4809;48.224;8.572;2022-12-10T17:12:07;11.13;;;7.83;;
9541;SDS011;4809;48.224;8.572;2022-12-10T17:14:36;12.07;;;7.70;;
9541;SDS011;4809;48.224;8.572;2022-12-10T17:17:06;12.83;;;8.77;;
9541;SDS011;4809;48.224;8.572;2022-12-10T17:19:33;11.57;;;7.63;;
9541;SDS011;4809;48.224;8.572;2022-12-10T17:22:01;12.60;;;8.00;;
9541;SDS011;4809;48.224;8.572;2022-12-10T17:24:27;12.50;;;8.57;;
9541;SDS011;4809;48.224;8.572;2022-12-10T17:27:02;12.33;;;8.67;;
9541;SDS011;4809;48.224;8.572;2022-12-10T17:29:33;13.30;;;9.17;;